createdAt,value
2022-10-14T00:01:47.399Z,97817.78
2022-10-14T00:04:14.768Z,97816.50
2022-10-14T00:06:41.417Z,97812.25
2022-10-14T00:09:09.599Z,97809.13
2022-10-14T00:11:37.787Z,97795.47
2022-10-14T00:14:16.915Z,97788.94
2022-10-14T00:16:45.437Z,97801.31
2022-10-14T00:19:13.330Z,97796.75
2022-10-14T00:21:43.058Z,97792.72
2022-10-14T00:24:12.593Z,97788.16
2022-10-14T00:26:40.687Z,97784.88
2022-10-14T00:29:11.208Z,97788.72
2022-10-14T00:31:37.791Z,97780.56
2022-10-14T00:34:04.730Z,97775.66
2022-10-14T00:36:31.371Z,97783.72
2022-10-14T00:38:58.204Z,97786.50
2022-10-14T00:41:27.467Z,97777.97
2022-10-14T00:44:03.007Z,97775.97
2022-10-14T00:46:33.243Z,97772.72
2022-10-14T00:49:03.577Z,97775.28
2022-10-14T00:51:30.417Z,97784.25
2022-10-14T00:53:57.091Z,97779.50
2022-10-14T00:56:28.754Z,97784.03
2022-10-14T00:58:56.679Z,97779.50
2022-10-14T01:01:23.543Z,97784.59
2022-10-14T01:03:50.283Z,97785.88
2022-10-14T01:06:25.738Z,97774.03
2022-10-14T01:09:24.136Z,97776.41
2022-10-14T01:12:30.490Z,97777.69
2022-10-14T01:15:35.711Z,97775.66
2022-10-14T01:18:51.930Z,97769.63
2022-10-14T01:21:32.739Z,97771.66
2022-10-14T01:24:41.967Z,97775.28
2022-10-14T01:27:19.652Z,97775.28
2022-10-14T01:30:08.198Z,97779.50
2022-10-14T01:32:48.933Z,97782.44
2022-10-14T01:36:16.936Z,97781.69
2022-10-14T01:39:11.200Z,97784.66
2022-10-14T01:41:46.485Z,97784.69
2022-10-14T01:44:16.287Z,97774.28
2022-10-14T01:46:48.785Z,97788.50
2022-10-14T01:49:19.762Z,97782.31
2022-10-14T01:51:50.723Z,97781.94
2022-10-14T01:54:28.218Z,97788.69
2022-10-14T01:56:59.559Z,97786.13
2022-10-14T01:59:27.088Z,97791.97
2022-10-14T02:01:53.747Z,97796.56
2022-10-14T02:04:22.470Z,97783.84
2022-10-14T02:07:00.330Z,97783.09
2022-10-14T02:09:48.115Z,97788.34
2022-10-14T02:12:34.517Z,97789.59
2022-10-14T02:15:29.383Z,97773.38
2022-10-14T02:18:37.695Z,97773.00
2022-10-14T02:21:44.587Z,97778.13
2022-10-14T02:24:20.215Z,97786.84
2022-10-14T02:26:49.818Z,97793.94
2022-10-14T02:29:20.162Z,97791.94
2022-10-14T02:31:48.554Z,97799.75
2022-10-14T02:34:19.291Z,97794.63
2022-10-14T02:36:47.599Z,97796.97
2022-10-14T02:39:21.514Z,97796.25
2022-10-14T02:41:48.318Z,97797.03
2022-10-14T02:44:14.923Z,97803.22
2022-10-14T02:46:43.042Z,97795.34
2022-10-14T02:49:09.697Z,97800.28
2022-10-14T02:51:36.515Z,97809.34
2022-10-14T02:54:03.542Z,97819.31
2022-10-14T02:56:30.146Z,97829.16
2022-10-14T02:58:56.715Z,97852.69
2022-10-14T03:01:23.360Z,97852.50
2022-10-14T03:03:50.205Z,97864.75
2022-10-14T03:06:16.966Z,97848.91
2022-10-14T03:08:43.678Z,97853.84
2022-10-14T03:11:10.294Z,97861.31
2022-10-14T03:13:36.848Z,97854.69
2022-10-14T03:16:03.866Z,97867.66
2022-10-14T03:18:31.385Z,97863.59
2022-10-14T03:20:58.066Z,97861.19
2022-10-14T03:23:24.863Z,97873.38
2022-10-14T03:25:51.427Z,97877.03
2022-10-14T03:28:18.104Z,97882.69
2022-10-14T03:30:44.759Z,97876.84
2022-10-14T03:33:14.764Z,97877.03
2022-10-14T03:35:42.161Z,97883.38
2022-10-14T03:38:08.914Z,97877.91
2022-10-14T03:40:35.703Z,97886.63
2022-10-14T03:43:02.660Z,97883.84
2022-10-14T03:45:29.325Z,97875.81
2022-10-14T03:47:56.101Z,97880.16
2022-10-14T03:50:23.241Z,97880.72
2022-10-14T03:52:54.625Z,97880.00
2022-10-14T03:55:22.541Z,97869.97
2022-10-14T03:57:49.118Z,97867.38
2022-10-14T04:00:16.375Z,97868.44
2022-10-14T04:02:43.075Z,97864.66
2022-10-14T04:05:10.582Z,97858.66
2022-10-14T04:07:37.278Z,97865.22
2022-10-14T04:10:04.638Z,97864.31
2022-10-14T04:12:31.673Z,97858.13
2022-10-14T04:14:58.453Z,97860.81
2022-10-14T04:17:25.536Z,97857.28
2022-10-14T04:19:53.630Z,97862.03
2022-10-14T04:22:20.809Z,97850.91
2022-10-14T04:24:47.603Z,97858.34
2022-10-14T04:27:14.215Z,97868.75
2022-10-14T04:29:41.026Z,97867.28
2022-10-14T04:32:07.619Z,97862.72
2022-10-14T04:34:34.242Z,97864.50
2022-10-14T04:37:01.004Z,97850.97
2022-10-14T04:39:27.610Z,97851.72
2022-10-14T04:41:54.447Z,97851.50
2022-10-14T04:44:21.411Z,97847.28
2022-10-14T04:46:48.149Z,97854.22
2022-10-14T04:49:16.491Z,97843.44
2022-10-14T04:51:43.399Z,97846.34
2022-10-14T04:54:10.475Z,97847.06
2022-10-14T04:56:37.770Z,97833.56
2022-10-14T04:59:05.591Z,97830.06
2022-10-14T05:01:34.256Z,97826.06
2022-10-14T05:04:01.093Z,97826.22
2022-10-14T05:06:28.143Z,97826.41
2022-10-14T05:08:55.025Z,97825.81
2022-10-14T05:11:21.704Z,97825.81
2022-10-14T05:13:48.623Z,97815.44
2022-10-14T05:16:15.446Z,97807.78
2022-10-14T05:18:42.042Z,97812.38
2022-10-14T05:21:09.027Z,97817.13
2022-10-14T05:23:35.633Z,97814.22
2022-10-14T05:26:02.232Z,97811.16
2022-10-14T05:28:28.961Z,97807.84
2022-10-14T05:30:55.780Z,97810.03
2022-10-14T05:33:22.439Z,97816.06
2022-10-14T05:36:04.125Z,97806.59
2022-10-14T05:38:34.212Z,97804.00
2022-10-14T05:41:01.582Z,97800.13
2022-10-14T05:43:32.421Z,97808.34
2022-10-14T05:46:00.229Z,97812.38
2022-10-14T05:48:26.998Z,97816.00
2022-10-14T05:50:53.612Z,97805.41
2022-10-14T05:53:20.247Z,97812.47
2022-10-14T05:55:47.071Z,97814.25
2022-10-14T05:58:13.877Z,97815.88
2022-10-14T06:00:40.515Z,97807.81
2022-10-14T06:03:07.147Z,97805.97
2022-10-14T06:05:37.188Z,97806.28
2022-10-14T06:08:05.102Z,97807.34
2022-10-14T06:10:31.785Z,97808.06
2022-10-14T06:12:58.388Z,97807.34
2022-10-14T06:15:24.982Z,97806.22
2022-10-14T06:17:51.799Z,97808.22
2022-10-14T06:20:18.551Z,97804.38
2022-10-14T06:22:45.659Z,97807.25
2022-10-14T06:25:12.324Z,97814.53
2022-10-14T06:27:38.956Z,97812.09
2022-10-14T06:30:06.424Z,97812.41
2022-10-14T06:32:33.340Z,97813.81
2022-10-14T06:35:00.341Z,97807.19
2022-10-14T06:37:26.939Z,97815.91
2022-10-14T06:39:53.593Z,97815.19
2022-10-14T06:42:20.300Z,97814.59
2022-10-14T06:44:47.065Z,97817.03
2022-10-14T06:47:13.741Z,97809.53
2022-10-14T06:49:40.380Z,97812.94
2022-10-14T06:52:07.110Z,97813.06
2022-10-14T06:54:38.880Z,97816.72
2022-10-14T06:57:06.331Z,97813.88
2022-10-14T06:59:32.978Z,97818.22
2022-10-14T07:01:59.664Z,97818.38
2022-10-14T07:04:26.529Z,97816.13
2022-10-14T07:06:53.339Z,97810.94
2022-10-14T07:09:20.233Z,97815.19
2022-10-14T07:11:46.839Z,97817.81
2022-10-14T07:14:13.401Z,97818.44
2022-10-14T07:16:40.193Z,97821.09
2022-10-14T07:19:06.769Z,97810.28
2022-10-14T07:21:33.373Z,97813.19
2022-10-14T07:23:59.944Z,97814.38
2022-10-14T07:26:26.501Z,97814.97
2022-10-14T07:28:53.225Z,97823.66
2022-10-14T07:31:19.890Z,97823.56
2022-10-14T07:33:46.662Z,97819.09
2022-10-14T07:36:18.512Z,97823.88
2022-10-14T07:38:48.438Z,97820.53
2022-10-14T07:41:20.790Z,97828.50
2022-10-14T07:43:52.361Z,97831.13
2022-10-14T07:46:29.162Z,97831.50
2022-10-14T07:49:00.561Z,97834.53
2022-10-14T07:51:27.891Z,97828.31
2022-10-14T07:53:56.328Z,97831.53
2022-10-14T07:56:23.702Z,97826.19
2022-10-14T07:58:50.510Z,97832.97
2022-10-14T08:01:18.844Z,97830.38
2022-10-14T08:03:47.278Z,97829.66
2022-10-14T08:06:14.398Z,97831.56
2022-10-14T08:08:42.013Z,97833.56
2022-10-14T08:11:14.495Z,97835.59
2022-10-14T08:13:45.055Z,97829.53
2022-10-14T08:16:15.417Z,97828.22
2022-10-14T08:18:42.359Z,97830.53
2022-10-14T08:21:09.059Z,97828.59
2022-10-14T08:23:35.666Z,97828.16
2022-10-14T08:26:02.260Z,97830.22
2022-10-14T08:28:29.268Z,97829.31
2022-10-14T08:30:56.334Z,97833.75
2022-10-14T08:33:22.897Z,97832.31
2022-10-14T08:35:53.850Z,97832.03
2022-10-14T08:38:25.200Z,97825.81
2022-10-14T08:41:24.845Z,97826.56
2022-10-14T08:44:25.735Z,97824.75
2022-10-14T08:47:01.076Z,97822.59
2022-10-14T08:49:49.441Z,97824.72
2022-10-14T08:52:25.625Z,97831.53
2022-10-14T08:55:00.903Z,97821.97
2022-10-14T08:57:36.710Z,97824.28
2022-10-14T09:00:04.558Z,97825.34
2022-10-14T09:02:40.194Z,97828.00
2022-10-14T09:05:09.883Z,97831.19
2022-10-14T09:07:37.216Z,97834.34
2022-10-14T09:10:08.446Z,97828.97
2022-10-14T09:12:36.520Z,97832.00
2022-10-14T09:15:24.854Z,97822.88
2022-10-14T09:18:43.921Z,97821.16
2022-10-14T09:21:51.808Z,97821.19
2022-10-14T09:24:25.332Z,97820.50
2022-10-14T09:29:40.329Z,97817.31
2022-10-14T09:32:15.639Z,97817.31
2022-10-14T09:34:48.645Z,97811.66
2022-10-14T09:37:35.191Z,97807.59
2022-10-14T09:40:34.087Z,97801.63
2022-10-14T09:43:21.217Z,97797.59
2022-10-14T09:46:00.425Z,97797.47
2022-10-14T09:48:53.475Z,97801.81
2022-10-14T09:51:23.805Z,97799.38
2022-10-14T09:53:58.515Z,97799.94
2022-10-14T09:56:45.271Z,97801.84
2022-10-14T09:59:22.744Z,97795.13
2022-10-14T10:01:55.549Z,97798.06
2022-10-14T10:04:47.190Z,97787.03
2022-10-14T10:07:24.765Z,97793.16
2022-10-14T10:09:56.281Z,97786.00
2022-10-14T10:12:28.916Z,97780.63
2022-10-14T10:14:58.180Z,97786.78
2022-10-14T10:17:27.266Z,97773.84
2022-10-14T10:20:33.793Z,97766.13
2022-10-14T10:23:28.939Z,97771.19
2022-10-14T10:25:55.691Z,97764.84
2022-10-14T10:28:32.782Z,97762.44
2022-10-14T10:31:28.984Z,97757.06
2022-10-14T10:34:36.138Z,97749.88
2022-10-14T10:37:31.582Z,97748.34
2022-10-14T10:40:37.028Z,97745.06
2022-10-14T10:43:55.080Z,97747.06
2022-10-14T10:46:45.142Z,97741.91
2022-10-14T10:49:40.632Z,97738.31
2022-10-14T10:52:23.482Z,97733.47
2022-10-14T10:55:19.448Z,97733.09
2022-10-14T10:58:07.483Z,97727.00
2022-10-14T11:00:49.802Z,97725.13
2022-10-14T11:03:44.482Z,97729.47
2022-10-14T11:06:41.956Z,97709.41
2022-10-14T11:09:38.227Z,97710.16
2022-10-14T11:12:47.014Z,97706.16
2022-10-14T11:15:23.581Z,97700.78
2022-10-14T11:17:58.899Z,97700.41
2022-10-14T11:21:36.049Z,97697.00
2022-10-14T11:24:48.447Z,97700.94
2022-10-14T11:27:48.844Z,97697.06
2022-10-14T11:30:37.771Z,97700.81
2022-10-14T11:33:39.866Z,97687.59
2022-10-14T11:36:38.164Z,97688.56
2022-10-14T11:39:33.341Z,97687.75
2022-10-14T11:42:41.506Z,97680.44
2022-10-14T11:45:35.525Z,97684.25
2022-10-14T11:48:20.326Z,97676.50
2022-10-14T11:50:52.540Z,97670.91
2022-10-14T11:53:25.209Z,97663.22
2022-10-14T11:56:04.882Z,97659.03
2022-10-14T11:58:35.500Z,97654.47
2022-10-14T12:01:20.601Z,97658.81
2022-10-14T12:04:18.348Z,97649.81
2022-10-14T12:06:55.721Z,97652.91
2022-10-14T12:09:28.422Z,97652.56
2022-10-14T12:12:02.972Z,97646.81
2022-10-14T12:14:34.726Z,97641.44
2022-10-14T12:17:06.411Z,97643.25
2022-10-14T12:19:33.800Z,97640.38
2022-10-14T12:22:22.060Z,97641.81
2022-10-14T12:24:58.874Z,97635.66
2022-10-14T12:27:28.700Z,97640.47
2022-10-14T12:29:58.428Z,97626.31
2022-10-14T12:32:31.952Z,97628.09
2022-10-14T12:35:02.410Z,97624.97
2022-10-14T12:37:50.716Z,97621.63
2022-10-14T12:40:23.976Z,97613.91
2022-10-14T12:42:59.003Z,97618.22
2022-10-14T12:45:28.904Z,97604.25
2022-10-14T12:48:26.536Z,97607.72
2022-10-14T12:51:10.570Z,97614.25
2022-10-14T12:53:46.658Z,97600.59
2022-10-14T12:56:29.728Z,97607.44
2022-10-14T12:59:01.344Z,97601.00
2022-10-14T13:01:32.359Z,97601.94
2022-10-14T13:04:17.494Z,97592.47
2022-10-14T13:07:41.263Z,97591.88
2022-10-14T13:10:59.530Z,97586.06
2022-10-14T13:13:59.775Z,97590.50
2022-10-14T13:17:06.876Z,97585.19
2022-10-14T13:19:44.495Z,97595.53
2022-10-14T13:22:38.415Z,97588.44
2022-10-14T13:25:12.983Z,97590.50
2022-10-14T13:28:05.112Z,97589.28
2022-10-14T13:31:12.964Z,97583.31
2022-10-14T13:34:12.695Z,97582.03
2022-10-14T13:36:56.311Z,97577.06
2022-10-14T13:39:23.281Z,97570.03
2022-10-14T13:41:50.706Z,97579.63
2022-10-14T13:44:21.853Z,97569.06
2022-10-14T13:46:50.017Z,97559.63
2022-10-14T13:49:33.760Z,97561.41
2022-10-14T13:52:04.562Z,97553.03
2022-10-14T13:54:31.666Z,97552.81
2022-10-14T14:00:43.664Z,97550.28
2022-10-14T14:03:40.214Z,97542.25
2022-10-14T14:06:15.443Z,97535.56
2022-10-14T14:08:51.218Z,97539.53
2022-10-14T14:11:27.115Z,97541.19
2022-10-14T14:14:01.795Z,97542.03
2022-10-14T14:16:51.789Z,97549.00
2022-10-14T14:19:21.569Z,97546.56
2022-10-14T14:21:48.202Z,97544.19
2022-10-14T14:24:25.413Z,97535.53
2022-10-14T14:26:54.835Z,97534.19
2022-10-14T14:29:26.928Z,97535.28
2022-10-14T14:32:06.102Z,97529.75
2022-10-14T14:34:35.824Z,97527.94
2022-10-14T14:37:23.576Z,97532.13
2022-10-14T14:40:20.206Z,97532.81
2022-10-14T14:42:50.238Z,97523.47
2022-10-14T14:45:21.007Z,97520.09
2022-10-14T14:47:50.033Z,97525.00
2022-10-14T14:50:35.424Z,97526.28
2022-10-14T14:53:11.679Z,97521.13
2022-10-14T14:56:14.316Z,97516.69
2022-10-14T14:58:52.401Z,97513.91
2022-10-14T15:01:27.775Z,97512.25
2022-10-14T15:04:15.400Z,97515.09
2022-10-14T15:06:51.526Z,97510.06
2022-10-14T15:09:28.949Z,97513.56
2022-10-14T15:11:58.006Z,97507.78
2022-10-14T15:14:30.684Z,97507.53
2022-10-14T15:16:57.674Z,97503.34
2022-10-14T15:19:37.302Z,97505.84
2022-10-14T15:22:17.175Z,97505.13
2022-10-14T15:25:06.802Z,97501.41
2022-10-14T15:27:51.127Z,97496.47
2022-10-14T15:30:50.503Z,97492.03
2022-10-14T15:33:21.101Z,97496.69
2022-10-14T15:35:57.043Z,97492.63
2022-10-14T15:38:24.718Z,97490.72
2022-10-14T15:40:54.810Z,97488.88
2022-10-14T15:43:27.270Z,97494.84
2022-10-14T15:46:13.259Z,97498.19
2022-10-14T15:48:46.033Z,97500.50
2022-10-14T15:51:19.683Z,97493.59
2022-10-14T15:53:46.694Z,97497.53
2022-10-14T15:56:13.467Z,97499.41
2022-10-14T15:58:40.204Z,97507.56
2022-10-14T16:01:07.218Z,97497.25
2022-10-14T16:03:37.259Z,97501.91
2022-10-14T16:06:05.916Z,97496.88
2022-10-14T16:08:33.558Z,97493.72
2022-10-14T16:11:00.361Z,97496.19
2022-10-14T16:13:27.101Z,97500.00
2022-10-14T16:15:58.754Z,97503.22
2022-10-14T16:18:27.183Z,97500.91
2022-10-14T16:20:53.977Z,97496.59
2022-10-14T16:23:22.645Z,97496.44
2022-10-14T16:25:50.471Z,97488.66
2022-10-14T16:28:17.984Z,97485.78
2022-10-14T16:30:49.374Z,97491.59
2022-10-14T16:33:19.990Z,97489.75
2022-10-14T16:35:51.046Z,97496.84
2022-10-14T16:38:19.126Z,97487.19
2022-10-14T16:40:45.777Z,97487.63
2022-10-14T16:43:12.416Z,97494.16
2022-10-14T16:45:41.790Z,97495.34
2022-10-14T16:48:08.541Z,97483.22
2022-10-14T16:50:35.239Z,97488.16
2022-10-14T16:53:20.401Z,97487.91
2022-10-14T16:55:47.566Z,97493.25
2022-10-14T16:58:15.655Z,97486.75
2022-10-14T17:00:42.303Z,97485.63
2022-10-14T17:03:09.008Z,97472.22
2022-10-14T17:05:38.087Z,97484.47
2022-10-14T17:08:05.102Z,97480.84
2022-10-14T17:10:31.898Z,97484.03
2022-10-14T17:12:58.632Z,97481.88
2022-10-14T17:15:25.252Z,97482.31
2022-10-14T17:17:53.195Z,97484.94
2022-10-14T17:20:21.874Z,97480.44
2022-10-14T17:22:49.846Z,97494.16
2022-10-14T17:25:17.839Z,97495.75
2022-10-14T17:27:44.453Z,97497.06
2022-10-14T17:30:11.676Z,97502.56
2022-10-14T17:32:38.437Z,97514.53
2022-10-14T17:35:06.520Z,97516.44
2022-10-14T17:37:34.232Z,97514.69
2022-10-14T17:40:00.871Z,97516.88
2022-10-14T17:42:27.463Z,97513.25
2022-10-14T17:44:54.110Z,97511.97
2022-10-14T17:47:20.934Z,97506.34
2022-10-14T17:49:48.117Z,97504.75
2022-10-14T17:52:14.791Z,97509.38
2022-10-14T17:54:41.607Z,97508.50
2022-10-14T17:57:08.540Z,97506.50
2022-10-14T17:59:35.264Z,97513.13
2022-10-14T18:02:03.369Z,97513.84
2022-10-14T18:04:32.977Z,97512.56
2022-10-14T18:06:59.749Z,97516.31
2022-10-14T18:09:26.441Z,97521.09
2022-10-14T18:12:08.101Z,97520.50
2022-10-14T18:14:35.659Z,97526.84
2022-10-14T18:17:02.265Z,97512.25
2022-10-14T18:19:29.276Z,97510.94
2022-10-14T18:21:56.045Z,97516.88
2022-10-14T18:24:23.348Z,97507.63
2022-10-14T18:26:53.440Z,97513.84
2022-10-14T18:29:20.170Z,97522.50
2022-10-14T18:31:48.879Z,97514.59
2022-10-14T18:34:15.662Z,97518.91
2022-10-14T18:36:42.442Z,97513.84
2022-10-14T18:39:11.454Z,97507.50
2022-10-14T18:41:38.241Z,97514.13
2022-10-14T18:44:06.566Z,97503.88
2022-10-14T18:46:38.475Z,97510.38
2022-10-14T18:49:07.934Z,97506.91
2022-10-14T18:51:37.090Z,97500.56
2022-10-14T18:54:11.219Z,97510.81
2022-10-14T18:56:38.846Z,97506.63
2022-10-14T18:59:09.162Z,97506.03
2022-10-14T19:01:37.470Z,97499.81
2022-10-14T19:04:06.070Z,97497.06
2022-10-14T19:06:34.283Z,97504.75
2022-10-14T19:09:01.918Z,97491.16
2022-10-14T19:11:29.692Z,97495.81
2022-10-14T19:13:58.396Z,97492.19
2022-10-14T19:16:30.839Z,97502.88
2022-10-14T19:19:01.305Z,97486.56
2022-10-14T19:21:30.519Z,97488.16
2022-10-14T19:23:58.682Z,97480.94
2022-10-14T19:26:28.605Z,97498.38
2022-10-14T19:28:57.706Z,97501.44
2022-10-14T19:31:26.863Z,97499.72
2022-10-14T19:33:54.609Z,97504.47
2022-10-14T19:36:22.687Z,97509.53
2022-10-14T19:38:52.367Z,97512.13
2022-10-14T19:41:19.105Z,97514.84
2022-10-14T19:43:46.093Z,97512.69
2022-10-14T19:46:13.810Z,97506.47
2022-10-14T19:48:41.025Z,97502.59
2022-10-14T19:51:11.591Z,97497.97
2022-10-14T19:53:40.137Z,97502.16
2022-10-14T19:56:09.474Z,97513.56
2022-10-14T19:58:39.657Z,97518.91
2022-10-14T20:01:15.881Z,97500.13
2022-10-14T20:03:43.145Z,97491.47
2022-10-14T20:06:11.976Z,97482.06
2022-10-14T20:08:39.151Z,97479.06
2022-10-14T20:11:07.980Z,97476.31
2022-10-14T20:13:35.151Z,97482.66
2022-10-14T20:16:02.616Z,97487.56
2022-10-14T20:18:33.190Z,97491.63
2022-10-14T20:21:01.806Z,97488.16
2022-10-14T20:23:28.650Z,97477.91
2022-10-14T20:26:02.906Z,97483.25
2022-10-14T20:28:29.828Z,97488.88
2022-10-14T20:30:57.427Z,97487.56
2022-10-14T20:33:25.214Z,97489.75
2022-10-14T20:36:07.753Z,97493.78
2022-10-14T20:38:34.594Z,97486.28
2022-10-14T20:41:12.787Z,97489.03
2022-10-14T20:43:40.290Z,97492.03
2022-10-14T20:46:06.893Z,97486.44
2022-10-14T20:48:33.750Z,97494.78
2022-10-14T20:51:03.935Z,97493.22
2022-10-14T20:53:31.145Z,97491.91
2022-10-14T20:56:02.846Z,97486.44
2022-10-14T20:58:29.506Z,97480.78
2022-10-14T21:01:08.183Z,97480.66
2022-10-14T21:03:35.103Z,97483.41
2022-10-14T21:06:03.538Z,97477.91
2022-10-14T21:08:30.268Z,97465.63
2022-10-14T21:11:12.143Z,97459.44
2022-10-14T21:13:47.487Z,97450.63
2022-10-14T21:16:21.413Z,97451.75
2022-10-14T21:18:53.717Z,97442.25
2022-10-14T21:21:29.503Z,97442.53
2022-10-14T21:23:56.473Z,97432.13
2022-10-14T21:26:23.443Z,97425.81
2022-10-14T21:28:50.132Z,97425.38
2022-10-14T21:31:19.144Z,97426.97
2022-10-14T21:33:59.858Z,97426.97
2022-10-14T21:36:29.783Z,97433.00
2022-10-14T21:38:57.158Z,97421.16
2022-10-14T21:41:24.666Z,97413.69
2022-10-14T21:43:51.455Z,97418.00
2022-10-14T21:46:18.202Z,97418.13
2022-10-14T21:48:45.399Z,97413.09
2022-10-14T21:51:17.434Z,97412.53
2022-10-14T21:53:45.540Z,97409.63
2022-10-14T21:56:14.559Z,97413.97
2022-10-14T21:58:41.595Z,97408.19
2022-10-14T22:01:09.804Z,97407.91
2022-10-14T22:03:37.829Z,97411.25
2022-10-14T22:06:07.418Z,97406.03
2022-10-14T22:08:36.479Z,97389.47
2022-10-14T22:11:04.220Z,97399.69
2022-10-14T22:13:31.082Z,97402.28
2022-10-14T22:15:57.997Z,97395.50
2022-10-14T22:18:24.626Z,97396.22
2022-10-14T22:21:00.996Z,97396.94
2022-10-14T22:23:27.628Z,97387.00
2022-10-14T22:25:54.663Z,97397.38
2022-10-14T22:28:21.314Z,97387.44
2022-10-14T22:30:47.916Z,97386.72
2022-10-14T22:33:14.507Z,97378.06
2022-10-14T22:35:41.300Z,97380.22
2022-10-14T22:38:07.886Z,97372.28
2022-10-14T22:40:34.748Z,97377.03
2022-10-14T22:43:01.406Z,97380.22
2022-10-14T22:45:28.151Z,97378.34
2022-10-14T22:47:54.941Z,97378.50
2022-10-14T22:50:21.578Z,97381.50
2022-10-14T22:52:48.139Z,97373.72
2022-10-14T22:55:14.996Z,97363.34
2022-10-14T22:57:41.896Z,97364.78
2022-10-14T23:00:09.416Z,97373.88
2022-10-14T23:02:36.050Z,97373.00
2022-10-14T23:05:02.820Z,97375.47
2022-10-14T23:07:29.535Z,97385.13
2022-10-14T23:09:56.340Z,97376.03
2022-10-14T23:12:23.100Z,97373.16
2022-10-14T23:14:51.287Z,97373.28
2022-10-14T23:17:17.822Z,97373.44
2022-10-14T23:19:44.377Z,97369.97
2022-10-14T23:22:11.189Z,97364.19
2022-10-14T23:24:37.950Z,97366.22
2022-10-14T23:27:04.562Z,97359.72
2022-10-14T23:29:31.150Z,97365.94
2022-10-14T23:31:58.153Z,97347.47
2022-10-14T23:34:25.013Z,97348.06
2022-10-14T23:36:51.828Z,97343.56
2022-10-14T23:39:18.474Z,97358.72
2022-10-14T23:41:45.176Z,97348.63
2022-10-14T23:44:12.172Z,97346.75
2022-10-14T23:46:38.977Z,97345.16
2022-10-14T23:49:14.354Z,97340.97
2022-10-14T23:51:51.893Z,97336.66
2022-10-14T23:54:18.526Z,97345.59
2022-10-14T23:56:45.363Z,97336.22
2022-10-14T23:59:12.279Z,97323.53
